Sainte-Adele, Canada
Current Conditions -  °F | °C
As of 1:00 AM on Wednesday 28 Jan 2015 (Local Time) from CYMX Reporting Station
Overcast Overcast  
Wind Chill:   Ceiling: 16000
Heat Index:   Visibility: 25mi
Dew Point: -11°   Wind: 3mph
Humidity: 40%   Direction: 320°NW
Pressure: 30.02"   Gusts: NA
Location:  45.95°N, 74.15°W
Report Text: CYMX 280600Z 32003KT 25SM SCT110 OVC160 M13/M24 A3002 RMK AC4AS4 SLP173
Loading
Personal Weather Stations






























Interactive Weather Map New forecast layout! Learn more

10-Day Weather Forecast

Advertisements
Track Severe Weather on mobile